createdAt,value
2022-09-20T00:00:24.370Z,1.69
2022-09-20T00:01:24.478Z,1.76
2022-09-20T00:02:24.463Z,2.08
2022-09-20T00:03:24.390Z,1.60
2022-09-20T00:04:24.374Z,2.11
2022-09-20T00:06:24.397Z,1.82
2022-09-20T00:07:24.386Z,1.49
2022-09-20T00:09:24.394Z,1.98
2022-09-20T00:10:24.402Z,1.97
2022-09-20T00:11:24.414Z,1.74
2022-09-20T00:13:24.409Z,1.60
2022-09-20T00:14:24.398Z,1.62
2022-09-20T00:15:24.419Z,2.06
2022-09-20T00:16:24.529Z,1.64
2022-09-20T00:18:24.421Z,1.90
2022-09-20T00:19:24.429Z,1.42
2022-09-20T00:20:24.449Z,1.34
2022-09-20T00:22:24.456Z,1.48
2022-09-20T00:23:24.428Z,1.47
2022-09-20T00:24:24.427Z,1.36
2022-09-20T00:25:24.422Z,1.37
2022-09-20T00:26:24.428Z,1.40
2022-09-20T00:27:24.477Z,1.46
2022-09-20T00:28:24.471Z,1.33
2022-09-20T00:29:24.473Z,1.71
2022-09-20T00:31:24.469Z,1.83
2022-09-20T00:32:24.476Z,1.52
2022-09-20T00:33:24.446Z,1.44
2022-09-20T00:34:24.459Z,1.37
2022-09-20T00:35:24.456Z,1.41
2022-09-20T00:37:24.507Z,1.61
2022-09-20T00:39:24.480Z,1.41
2022-09-20T00:40:24.605Z,1.51
2022-09-20T00:41:24.462Z,1.57
2022-09-20T00:42:24.514Z,1.58
2022-09-20T00:43:24.484Z,1.43
2022-09-20T00:44:24.485Z,1.72
2022-09-20T00:45:24.507Z,1.60
2022-09-20T00:46:24.538Z,1.22
2022-09-20T00:47:24.520Z,1.63
2022-09-20T00:48:24.498Z,1.70
2022-09-20T00:51:24.491Z,1.65
2022-09-20T00:53:24.528Z,1.48
2022-09-20T00:54:24.505Z,1.37
2022-09-20T00:55:24.519Z,1.69
2022-09-20T00:56:24.506Z,1.54
2022-09-20T00:57:24.495Z,1.33
2022-09-20T00:59:24.520Z,1.38
2022-09-20T01:00:24.522Z,1.79
2022-09-20T01:01:24.589Z,1.55
2022-09-20T01:05:24.563Z,1.73
2022-09-20T01:06:24.530Z,1.76
2022-09-20T01:07:24.543Z,1.63
2022-09-20T01:09:24.538Z,1.88
2022-09-20T01:10:24.572Z,1.79
2022-09-20T01:11:24.526Z,2.08
2022-09-20T01:12:24.559Z,1.89
2022-09-20T01:14:24.557Z,2.10
2022-09-20T01:15:24.589Z,2.02
2022-09-20T01:16:24.625Z,2.00
2022-09-20T01:17:24.562Z,1.89
2022-09-20T01:18:24.564Z,2.19
2022-09-20T01:19:24.580Z,1.90
2022-09-20T01:20:24.596Z,1.96
2022-09-20T01:21:24.572Z,1.94
2022-09-20T01:22:24.569Z,1.48
2022-09-20T01:23:24.586Z,1.89
2022-09-20T01:25:24.586Z,2.21
2022-09-20T01:26:24.572Z,2.04
2022-09-20T01:27:24.591Z,2.23
2022-09-20T01:28:24.571Z,2.43
2022-09-20T01:29:24.592Z,2.22
2022-09-20T01:30:24.619Z,2.34
2022-09-20T01:31:24.700Z,2.77
2022-09-20T01:32:24.581Z,2.20
2022-09-20T01:34:24.611Z,2.44
2022-09-20T01:35:24.641Z,2.48
2022-09-20T01:36:24.613Z,2.35
2022-09-20T01:37:24.622Z,2.40
2022-09-20T01:39:24.614Z,2.05
2022-09-20T01:41:24.641Z,2.31
2022-09-20T01:43:24.623Z,2.51
2022-09-20T01:44:24.640Z,2.67
2022-09-20T01:45:24.678Z,2.65
2022-09-20T01:46:24.784Z,2.64
2022-09-20T01:47:24.647Z,2.76
2022-09-20T01:48:24.620Z,2.41
2022-09-20T01:49:24.632Z,2.82
2022-09-20T01:51:24.672Z,2.95
2022-09-20T01:53:24.657Z,2.56
2022-09-20T01:55:24.665Z,2.31
2022-09-20T01:57:27.350Z,2.49
2022-09-20T02:00:24.652Z,2.48
2022-09-20T02:01:24.773Z,2.80
2022-09-20T02:04:24.699Z,2.45
2022-09-20T02:05:24.686Z,2.72
2022-09-20T02:06:24.679Z,2.72
2022-09-20T02:07:24.711Z,2.49
2022-09-20T02:08:24.686Z,2.67
2022-09-20T02:09:24.709Z,2.84
2022-09-20T02:10:24.698Z,2.51
2022-09-20T02:11:24.691Z,2.44
2022-09-20T02:12:24.698Z,2.49
2022-09-20T02:13:24.721Z,2.96
2022-09-20T02:14:24.718Z,3.28
2022-09-20T02:15:24.727Z,2.79
2022-09-20T02:16:24.795Z,2.58
2022-09-20T02:17:24.723Z,2.84
2022-09-20T02:18:24.721Z,2.99
2022-09-20T02:19:24.745Z,2.56
2022-09-20T02:20:24.732Z,2.89
2022-09-20T02:21:24.726Z,2.61
2022-09-20T02:22:24.738Z,2.66
2022-09-20T02:23:24.740Z,2.30
2022-09-20T02:24:24.741Z,2.32
2022-09-20T02:25:24.742Z,2.47
2022-09-20T02:26:24.732Z,2.30
2022-09-20T02:27:24.736Z,2.73
2022-09-20T02:28:24.726Z,2.37
2022-09-20T02:29:24.762Z,2.71
2022-09-20T02:31:24.806Z,2.56
2022-09-20T02:33:24.759Z,2.93
2022-09-20T02:34:25.080Z,2.53
2022-09-20T02:35:24.742Z,2.40
2022-09-20T02:36:24.766Z,2.39
2022-09-20T02:37:24.751Z,2.47
2022-09-20T02:38:24.769Z,2.27
2022-09-20T02:40:24.863Z,2.43
2022-09-20T02:41:24.751Z,2.29
2022-09-20T02:43:24.774Z,2.41
2022-09-20T02:44:24.834Z,2.82
2022-09-20T02:45:24.825Z,3.21
2022-09-20T02:46:24.799Z,2.23
2022-09-20T02:47:24.821Z,3.01
2022-09-20T02:48:24.776Z,2.59
2022-09-20T02:49:24.821Z,3.20
2022-09-20T02:50:24.793Z,2.42
2022-09-20T02:51:24.803Z,2.59
2022-09-20T02:52:24.798Z,2.91
2022-09-20T02:53:24.806Z,2.62
2022-09-20T02:54:24.813Z,2.82
2022-09-20T02:56:24.857Z,2.85
2022-09-20T02:58:24.819Z,2.74
2022-09-20T03:00:24.852Z,2.51
2022-09-20T03:01:24.970Z,2.44
2022-09-20T03:02:24.883Z,2.49
2022-09-20T03:03:24.847Z,2.00
2022-09-20T03:04:24.851Z,2.37
2022-09-20T03:06:24.889Z,2.85
2022-09-20T03:07:24.834Z,2.90
2022-09-20T03:08:24.857Z,2.81
2022-09-20T03:10:24.841Z,2.93
2022-09-20T03:11:24.853Z,2.59
2022-09-20T03:12:24.824Z,2.87
2022-09-20T03:15:24.869Z,3.02
2022-09-20T03:16:25.006Z,2.80
2022-09-20T03:18:24.870Z,2.57
2022-09-20T03:19:24.888Z,2.83
2022-09-20T03:21:24.901Z,2.95
2022-09-20T03:22:24.889Z,2.68
2022-09-20T03:23:24.878Z,2.82
2022-09-20T03:24:24.884Z,2.92
2022-09-20T03:25:24.868Z,2.36
2022-09-20T03:26:24.897Z,2.91
2022-09-20T03:28:24.900Z,2.93
2022-09-20T03:33:24.922Z,2.48
2022-09-20T03:34:24.912Z,2.73
2022-09-20T03:35:24.893Z,2.96
2022-09-20T03:36:24.903Z,3.03
2022-09-20T03:38:24.919Z,2.61
2022-09-20T03:39:24.927Z,2.74
2022-09-20T03:40:24.980Z,2.91
2022-09-20T03:41:24.929Z,2.64
2022-09-20T03:43:24.970Z,2.54
2022-09-20T03:44:24.936Z,2.85
2022-09-20T03:45:24.914Z,2.58
2022-09-20T03:46:24.928Z,3.04
2022-09-20T03:47:24.941Z,2.27
2022-09-20T03:48:24.966Z,2.54
2022-09-20T03:49:24.948Z,2.35
2022-09-20T03:50:25.003Z,2.11
2022-09-20T03:52:24.955Z,2.47
2022-09-20T03:53:24.978Z,2.08
2022-09-20T03:54:24.949Z,2.74
2022-09-20T03:55:24.951Z,2.92
2022-09-20T03:56:24.929Z,3.24
2022-09-20T03:57:24.945Z,2.37
2022-09-20T03:58:24.983Z,2.55
2022-09-20T03:59:25.008Z,2.75
2022-09-20T04:00:24.969Z,2.94
2022-09-20T04:01:25.037Z,2.54
2022-09-20T04:02:25.064Z,2.70
2022-09-20T04:03:25.010Z,2.76
2022-09-20T04:04:24.964Z,2.62
2022-09-20T04:05:24.977Z,2.66
2022-09-20T04:06:24.966Z,2.77
2022-09-20T04:07:24.975Z,2.49
2022-09-20T04:08:25.007Z,2.49
2022-09-20T04:09:24.978Z,2.30
2022-09-20T04:10:24.988Z,2.20
2022-09-20T04:11:25.009Z,2.25
2022-09-20T04:12:24.996Z,2.48
2022-09-20T04:13:25.015Z,2.19
2022-09-20T04:14:24.987Z,2.61
2022-09-20T04:15:24.997Z,2.20
2022-09-20T04:16:25.061Z,2.51
2022-09-20T04:18:25.050Z,2.68
2022-09-20T04:19:26.842Z,2.72
2022-09-20T04:20:25.022Z,2.28
2022-09-20T04:22:25.013Z,2.55
2022-09-20T04:24:25.052Z,2.80
2022-09-20T04:27:25.045Z,2.57
2022-09-20T04:28:25.022Z,2.30
2022-09-20T04:30:25.062Z,2.67
2022-09-20T04:31:25.073Z,2.25
2022-09-20T04:33:25.054Z,2.55
2022-09-20T04:34:25.051Z,2.06
2022-09-20T04:35:25.064Z,2.57
2022-09-20T04:36:25.051Z,2.68
2022-09-20T04:37:25.049Z,2.80
2022-09-20T04:38:25.042Z,2.62
2022-09-20T04:39:25.073Z,2.37
2022-09-20T04:40:25.158Z,2.85
2022-09-20T04:41:25.068Z,3.02
2022-09-20T04:43:25.075Z,2.51
2022-09-20T04:44:25.089Z,2.89
2022-09-20T04:45:25.056Z,2.87
2022-09-20T04:46:25.167Z,2.95
2022-09-20T04:47:25.081Z,3.10
2022-09-20T04:48:25.094Z,2.93
2022-09-20T04:49:25.083Z,2.93
2022-09-20T04:50:25.084Z,3.04
2022-09-20T04:51:25.107Z,3.78
2022-09-20T04:52:25.098Z,2.80
2022-09-20T04:53:25.083Z,2.71
2022-09-20T04:54:25.089Z,2.73
2022-09-20T04:55:25.085Z,2.70
2022-09-20T04:57:25.143Z,2.75
2022-09-20T04:58:25.108Z,2.59
2022-09-20T04:59:25.092Z,2.98
2022-09-20T05:00:25.129Z,2.40
2022-09-20T05:01:28.235Z,2.81
2022-09-20T05:02:25.172Z,2.75
2022-09-20T05:03:25.145Z,2.90
2022-09-20T05:04:25.134Z,2.62
2022-09-20T05:05:25.127Z,2.76
2022-09-20T05:06:25.141Z,2.72
2022-09-20T05:08:25.136Z,2.29
2022-09-20T05:09:25.152Z,3.31
2022-09-20T05:10:25.134Z,3.13
2022-09-20T05:11:25.144Z,2.64
2022-09-20T05:12:25.159Z,3.23
2022-09-20T05:13:25.217Z,3.02
2022-09-20T05:14:25.220Z,2.89
2022-09-20T05:15:25.126Z,2.94
2022-09-20T05:16:25.195Z,2.90
2022-09-20T05:17:25.157Z,2.95
2022-09-20T05:18:25.185Z,3.16
2022-09-20T05:20:25.162Z,2.89
2022-09-20T05:22:25.153Z,3.18
2022-09-20T05:23:25.182Z,3.11
2022-09-20T05:24:25.171Z,3.13
2022-09-20T05:25:25.186Z,2.54
2022-09-20T05:26:25.181Z,2.74
2022-09-20T05:28:25.213Z,2.83
2022-09-20T05:30:25.176Z,3.16
2022-09-20T05:33:25.228Z,2.84
2022-09-20T05:35:25.209Z,3.59
2022-09-20T05:36:25.204Z,3.53
2022-09-20T05:37:25.209Z,4.30
2022-09-20T05:39:25.288Z,4.27
2022-09-20T05:40:25.252Z,3.42
2022-09-20T05:45:25.281Z,3.29
2022-09-20T05:46:25.227Z,3.72
2022-09-20T05:47:25.217Z,3.55
2022-09-20T05:48:25.232Z,3.26
2022-09-20T05:49:25.232Z,3.31
2022-09-20T05:50:25.264Z,3.08
2022-09-20T05:51:25.237Z,3.56
2022-09-20T05:52:25.230Z,3.25
2022-09-20T05:53:25.240Z,3.41
2022-09-20T05:54:25.294Z,3.12
2022-09-20T05:55:25.285Z,3.09
2022-09-20T05:56:25.252Z,3.07
2022-09-20T05:57:25.252Z,2.58
2022-09-20T05:58:25.235Z,3.30
2022-09-20T05:59:25.259Z,2.83
2022-09-20T06:00:25.293Z,2.96
2022-09-20T06:01:25.262Z,3.08
2022-09-20T06:02:25.292Z,2.91
2022-09-20T06:03:25.254Z,2.92
2022-09-20T06:04:25.261Z,3.52
2022-09-20T06:05:25.268Z,3.34
2022-09-20T06:06:28.057Z,3.29
2022-09-20T06:07:25.284Z,3.08
2022-09-20T06:08:25.255Z,3.01
2022-09-20T06:09:25.300Z,3.32
2022-09-20T06:10:25.305Z,3.24
2022-09-20T06:11:25.271Z,2.96
2022-09-20T06:12:25.281Z,3.50
2022-09-20T06:13:25.290Z,3.09
2022-09-20T06:14:25.295Z,3.37
2022-09-20T06:15:25.335Z,2.89
2022-09-20T06:16:25.350Z,3.14
2022-09-20T06:17:25.276Z,2.93
2022-09-20T06:18:25.305Z,3.03
2022-09-20T06:19:25.320Z,3.25
2022-09-20T06:20:25.353Z,2.94
2022-09-20T06:21:25.333Z,3.07
2022-09-20T06:22:25.301Z,2.69
2022-09-20T06:23:25.304Z,3.06
2022-09-20T06:24:25.325Z,2.91
2022-09-20T06:25:25.352Z,2.91
2022-09-20T06:26:25.386Z,3.24
2022-09-20T06:27:25.346Z,2.93
2022-09-20T06:28:25.310Z,3.27
2022-09-20T06:29:25.355Z,2.56
2022-09-20T06:30:25.398Z,3.04
2022-09-20T06:31:25.321Z,2.89
2022-09-20T06:32:25.330Z,2.60
2022-09-20T06:33:25.340Z,2.95
2022-09-20T06:34:25.345Z,2.90
2022-09-20T06:35:25.354Z,2.99
2022-09-20T06:36:25.339Z,2.88
2022-09-20T06:37:25.356Z,2.99
2022-09-20T06:38:25.367Z,3.17
2022-09-20T06:39:25.354Z,3.08
2022-09-20T06:40:25.511Z,2.76
2022-09-20T06:41:25.353Z,2.61
2022-09-20T06:42:27.158Z,2.99
2022-09-20T06:43:25.378Z,2.47
2022-09-20T06:44:25.366Z,2.53
2022-09-20T06:45:25.400Z,2.28
2022-09-20T06:46:25.379Z,2.14
2022-09-20T06:47:25.361Z,2.64
2022-09-20T06:48:25.359Z,2.43
2022-09-20T06:49:25.354Z,2.59
2022-09-20T06:50:25.461Z,2.54
2022-09-20T06:51:25.381Z,2.87
2022-09-20T06:52:25.380Z,2.95
2022-09-20T06:53:25.400Z,2.51
2022-09-20T06:54:25.394Z,2.70
2022-09-20T06:55:29.030Z,3.02
2022-09-20T06:56:25.386Z,2.75
2022-09-20T06:57:25.385Z,2.63
2022-09-20T06:58:25.393Z,3.02
2022-09-20T06:59:25.405Z,2.67
2022-09-20T07:00:25.500Z,3.03
2022-09-20T07:01:30.228Z,3.07
2022-09-20T07:02:25.469Z,3.09
2022-09-20T07:03:26.411Z,2.72
2022-09-20T07:04:25.424Z,3.23
2022-09-20T07:05:25.474Z,2.70
2022-09-20T07:06:25.420Z,3.61
2022-09-20T07:07:25.437Z,3.32
2022-09-20T07:08:25.448Z,3.00
2022-09-20T07:09:25.440Z,3.65
2022-09-20T07:10:25.464Z,3.12
2022-09-20T07:11:25.436Z,3.39
2022-09-20T07:12:25.455Z,2.95
2022-09-20T07:13:25.454Z,3.48
2022-09-20T07:14:25.419Z,2.59
2022-09-20T07:15:25.468Z,3.20
2022-09-20T07:16:25.455Z,2.57
2022-09-20T07:17:25.440Z,3.06
2022-09-20T07:18:25.459Z,3.04
2022-09-20T07:19:25.435Z,3.10
2022-09-20T07:20:25.477Z,3.10
2022-09-20T07:21:25.452Z,3.02
2022-09-20T07:22:25.477Z,2.79
2022-09-20T07:23:25.467Z,3.11
2022-09-20T07:24:25.452Z,3.14
2022-09-20T07:25:25.540Z,3.07
2022-09-20T07:26:25.485Z,2.93
2022-09-20T07:27:29.106Z,3.09
2022-09-20T07:28:25.523Z,2.98
2022-09-20T07:29:25.467Z,2.87
2022-09-20T07:30:25.511Z,3.13
2022-09-20T07:31:25.548Z,3.22
2022-09-20T07:33:25.528Z,3.24
2022-09-20T07:34:25.520Z,2.82
2022-09-20T07:35:25.519Z,3.38
2022-09-20T07:36:25.506Z,3.56
2022-09-20T07:37:25.495Z,3.54
2022-09-20T07:38:25.529Z,3.63
2022-09-20T07:39:25.556Z,4.08
2022-09-20T07:40:25.622Z,3.84
2022-09-20T07:41:25.524Z,3.98
2022-09-20T07:42:25.527Z,4.11
2022-09-20T07:43:25.558Z,4.43
2022-09-20T07:44:25.510Z,3.36
2022-09-20T07:45:25.568Z,3.38
2022-09-20T07:46:25.507Z,3.10
2022-09-20T07:48:25.564Z,3.13
2022-09-20T07:50:25.579Z,3.53
2022-09-20T07:51:25.526Z,3.21
2022-09-20T07:52:25.556Z,2.54
2022-09-20T07:53:25.556Z,2.54
2022-09-20T07:54:25.550Z,2.72
2022-09-20T07:55:25.578Z,2.87
2022-09-20T07:56:25.582Z,2.73
2022-09-20T07:57:25.568Z,3.10
2022-09-20T07:58:25.567Z,2.54
2022-09-20T07:59:25.578Z,2.40
2022-09-20T08:00:25.610Z,3.29
2022-09-20T08:01:25.625Z,2.72
2022-09-20T08:02:25.629Z,2.65
2022-09-20T08:03:25.565Z,3.03
2022-09-20T08:04:25.572Z,2.77
2022-09-20T08:05:25.611Z,3.14
2022-09-20T08:06:25.588Z,2.48
2022-09-20T08:07:25.570Z,3.24
2022-09-20T08:08:25.592Z,3.19
2022-09-20T08:09:25.604Z,2.66
2022-09-20T08:10:25.606Z,3.03
2022-09-20T08:11:27.899Z,2.86
2022-09-20T08:14:25.595Z,2.78
2022-09-20T08:15:25.649Z,2.49
2022-09-20T08:16:25.684Z,2.64
2022-09-20T08:17:25.617Z,2.70
2022-09-20T08:18:25.641Z,1.94
2022-09-20T08:19:25.652Z,2.38
2022-09-20T08:20:25.683Z,2.71
2022-09-20T08:21:25.628Z,2.37
2022-09-20T08:22:25.641Z,2.45
2022-09-20T08:23:25.606Z,2.75
2022-09-20T08:24:25.656Z,2.23
2022-09-20T08:25:25.661Z,2.28
2022-09-20T08:26:25.613Z,2.29
2022-09-20T08:27:25.645Z,2.29
2022-09-20T08:28:25.633Z,2.30
2022-09-20T08:29:25.658Z,2.19
2022-09-20T08:30:27.690Z,2.02
2022-09-20T08:31:25.762Z,2.06
2022-09-20T08:32:25.633Z,1.84
2022-09-20T08:33:25.659Z,2.65
2022-09-20T08:34:25.650Z,1.66
2022-09-20T08:35:25.705Z,2.15
2022-09-20T08:36:25.667Z,3.92
2022-09-20T08:37:25.688Z,2.76
2022-09-20T08:40:25.899Z,1.85
2022-09-20T08:41:25.662Z,2.31
2022-09-20T08:42:25.680Z,1.93
2022-09-20T08:44:25.686Z,2.02
2022-09-20T08:45:34.798Z,2.22
2022-09-20T08:46:25.766Z,1.78
2022-09-20T08:47:25.695Z,2.28
2022-09-20T08:49:25.702Z,2.13
2022-09-20T08:50:25.708Z,2.40
2022-09-20T08:51:25.703Z,2.12
2022-09-20T08:52:25.714Z,2.44
2022-09-20T08:53:25.690Z,2.32
2022-09-20T08:54:26.110Z,2.05
2022-09-20T08:55:25.748Z,1.83
2022-09-20T08:56:25.724Z,1.92
2022-09-20T08:57:25.707Z,2.10
2022-09-20T08:58:25.719Z,2.47
2022-09-20T08:59:25.732Z,2.05
2022-09-20T09:00:25.758Z,2.37
2022-09-20T09:01:25.739Z,2.06
2022-09-20T09:02:25.762Z,2.04
2022-09-20T09:03:25.736Z,2.14
2022-09-20T09:04:25.715Z,2.52
2022-09-20T09:05:25.762Z,1.73
2022-09-20T09:06:25.732Z,1.54
2022-09-20T09:07:25.733Z,1.68
2022-09-20T09:08:25.757Z,1.95
2022-09-20T09:09:25.736Z,2.04
2022-09-20T09:10:25.807Z,1.88
2022-09-20T09:11:25.756Z,2.15
2022-09-20T09:12:25.765Z,2.26
2022-09-20T09:13:25.775Z,1.71
2022-09-20T09:14:25.778Z,2.07
2022-09-20T09:15:25.800Z,1.96
2022-09-20T09:16:30.214Z,2.00
2022-09-20T09:17:27.832Z,1.93
2022-09-20T09:18:31.666Z,2.02
2022-09-20T09:19:25.763Z,1.82
2022-09-20T09:20:25.807Z,1.98
2022-09-20T09:22:25.762Z,1.97
2022-09-20T09:23:25.779Z,1.59
2022-09-20T09:24:25.793Z,1.87
2022-09-20T09:25:25.834Z,2.21
2022-09-20T09:26:25.822Z,1.77
2022-09-20T09:27:25.802Z,1.61
2022-09-20T09:28:25.814Z,1.90
2022-09-20T09:29:25.796Z,2.02
2022-09-20T09:30:25.818Z,1.80
2022-09-20T09:31:26.091Z,1.69
2022-09-20T09:32:25.819Z,1.49
2022-09-20T09:33:25.821Z,1.26
2022-09-20T09:34:25.819Z,1.55
2022-09-20T09:35:25.869Z,1.53
2022-09-20T09:36:25.824Z,1.76
2022-09-20T09:37:28.590Z,2.05
2022-09-20T09:38:25.832Z,2.03
2022-09-20T09:39:25.837Z,2.02
2022-09-20T09:40:26.098Z,1.98
2022-09-20T09:41:25.818Z,2.36
2022-09-20T09:42:25.838Z,2.25
2022-09-20T09:43:25.845Z,2.77
2022-09-20T09:44:25.866Z,2.54
2022-09-20T09:45:25.878Z,2.49
2022-09-20T09:46:25.853Z,2.36
2022-09-20T09:47:25.874Z,2.36
2022-09-20T09:48:25.868Z,2.76
2022-09-20T09:49:25.848Z,2.69
2022-09-20T09:50:25.902Z,2.78
2022-09-20T09:51:25.848Z,2.51
2022-09-20T09:52:25.850Z,2.80
2022-09-20T09:53:25.873Z,2.46
2022-09-20T09:54:26.152Z,2.65
2022-09-20T09:55:25.906Z,2.18
2022-09-20T09:56:25.881Z,2.30
2022-09-20T09:57:25.885Z,1.94
2022-09-20T09:58:25.899Z,2.21
2022-09-20T09:59:25.857Z,2.06
2022-09-20T10:00:25.907Z,2.27
2022-09-20T10:01:28.938Z,3.46
2022-09-20T10:02:25.910Z,2.65
2022-09-20T10:03:25.887Z,2.36
2022-09-20T10:04:25.878Z,2.77
2022-09-20T10:05:25.931Z,2.26
2022-09-20T10:06:25.885Z,2.25
2022-09-20T10:07:25.911Z,2.11
2022-09-20T10:08:25.905Z,2.18
2022-09-20T10:09:25.919Z,2.19
2022-09-20T10:10:25.950Z,1.70
2022-09-20T10:11:25.912Z,1.38
2022-09-20T10:12:25.919Z,1.41
2022-09-20T10:13:25.913Z,1.99
2022-09-20T10:14:25.923Z,1.40
2022-09-20T10:15:25.961Z,1.86
2022-09-20T10:16:25.957Z,1.53
2022-09-20T10:17:25.946Z,1.83
2022-09-20T10:18:25.947Z,1.36
2022-09-20T10:19:25.933Z,1.82
2022-09-20T10:20:25.943Z,1.73
2022-09-20T10:21:25.945Z,0.83
2022-09-20T10:22:25.955Z,1.36
2022-09-20T10:23:51.353Z,1.16
2022-09-20T10:24:25.941Z,1.42
2022-09-20T10:25:25.979Z,1.18
2022-09-20T10:26:25.953Z,0.74
2022-09-20T10:27:25.978Z,1.09
2022-09-20T10:28:25.978Z,1.52
2022-09-20T10:29:25.963Z,1.13
2022-09-20T10:30:25.999Z,1.35
2022-09-20T10:31:26.188Z,1.24
2022-09-20T10:32:25.986Z,1.43
2022-09-20T10:33:25.965Z,1.27
2022-09-20T10:34:25.952Z,1.39
2022-09-20T10:35:26.009Z,1.72
2022-09-20T10:36:25.976Z,1.50
2022-09-20T10:37:26.001Z,1.35
2022-09-20T10:38:25.976Z,1.36
2022-09-20T10:39:25.991Z,1.73
2022-09-20T10:40:26.383Z,1.39
2022-09-20T10:41:25.978Z,1.68
2022-09-20T10:42:26.010Z,1.59
2022-09-20T10:43:25.993Z,1.43
2022-09-20T10:44:26.000Z,1.62
2022-09-20T10:45:53.680Z,1.48
2022-09-20T10:46:32.262Z,1.71
2022-09-20T10:47:26.041Z,1.55
2022-09-20T10:48:26.024Z,1.40
2022-09-20T10:49:26.004Z,1.23
2022-09-20T10:50:26.002Z,1.89
2022-09-20T10:51:26.030Z,1.63
2022-09-20T10:52:26.006Z,2.05
2022-09-20T10:53:26.018Z,1.93
2022-09-20T10:54:26.034Z,1.95
2022-09-20T10:55:26.038Z,1.78
2022-09-20T10:56:26.027Z,1.76
2022-09-20T10:57:26.027Z,1.73
2022-09-20T10:58:26.033Z,1.53
2022-09-20T10:59:26.029Z,1.79
2022-09-20T11:00:26.045Z,2.19
2022-09-20T11:01:26.127Z,2.10
2022-09-20T11:02:26.111Z,1.90
2022-09-20T11:03:26.047Z,1.86
2022-09-20T11:04:26.029Z,1.60
2022-09-20T11:05:26.071Z,1.64
2022-09-20T11:06:26.102Z,2.25
2022-09-20T11:07:26.089Z,1.91
2022-09-20T11:08:26.067Z,1.72
2022-09-20T11:09:26.083Z,1.38
2022-09-20T11:10:26.084Z,1.92
2022-09-20T11:11:26.218Z,1.97
2022-09-20T11:12:26.073Z,1.39
2022-09-20T11:13:26.071Z,1.91
2022-09-20T11:14:26.066Z,1.50
2022-09-20T11:15:26.092Z,1.65
2022-09-20T11:16:26.145Z,1.73
2022-09-20T11:17:26.126Z,1.93
2022-09-20T11:18:26.082Z,1.77
2022-09-20T11:19:26.104Z,1.78
2022-09-20T11:20:26.083Z,1.45
2022-09-20T11:21:26.110Z,1.54
2022-09-20T11:22:26.237Z,1.28
2022-09-20T11:23:26.100Z,1.89
2022-09-20T11:24:26.106Z,1.60
2022-09-20T11:25:29.292Z,1.64
2022-09-20T11:26:26.141Z,1.57
2022-09-20T11:27:26.090Z,1.66
2022-09-20T11:28:26.238Z,1.53
2022-09-20T11:29:26.117Z,1.35
2022-09-20T11:30:26.128Z,1.53
2022-09-20T11:31:26.221Z,1.26
2022-09-20T11:32:26.126Z,1.41
2022-09-20T11:33:26.162Z,1.88
2022-09-20T11:34:26.134Z,1.76
2022-09-20T11:35:26.121Z,1.45
2022-09-20T11:36:26.143Z,1.62
2022-09-20T11:37:26.126Z,1.41
2022-09-20T11:38:26.167Z,1.62
2022-09-20T11:39:26.126Z,1.62
2022-09-20T11:40:26.192Z,1.44
2022-09-20T11:42:26.157Z,1.38
2022-09-20T11:43:26.181Z,1.25
2022-09-20T11:44:26.147Z,1.34
2022-09-20T11:45:28.414Z,1.52
2022-09-20T11:46:26.174Z,1.09
2022-09-20T11:47:42.764Z,1.17
2022-09-20T11:48:26.219Z,1.56
2022-09-20T11:49:26.158Z,1.41
2022-09-20T11:50:26.162Z,1.65
2022-09-20T11:51:26.163Z,1.70
2022-09-20T11:52:26.177Z,1.65
2022-09-20T11:53:26.208Z,1.02
2022-09-20T11:54:26.182Z,1.42
2022-09-20T11:55:26.186Z,1.19
2022-09-20T11:56:26.213Z,1.11
2022-09-20T11:57:26.168Z,1.34
2022-09-20T11:58:26.214Z,1.43
2022-09-20T11:59:26.213Z,1.05
2022-09-20T12:00:26.176Z,1.30
2022-09-20T12:01:28.222Z,1.23
2022-09-20T12:02:26.389Z,1.58
2022-09-20T12:03:26.254Z,1.63
2022-09-20T12:04:32.359Z,1.36
2022-09-20T12:05:26.212Z,1.34
2022-09-20T12:06:26.215Z,1.01
2022-09-20T12:07:26.219Z,1.70
2022-09-20T12:08:26.257Z,1.76
2022-09-20T12:09:26.199Z,1.42
2022-09-20T12:10:26.221Z,1.51
2022-09-20T12:11:26.219Z,1.35
2022-09-20T12:12:26.275Z,1.03
2022-09-20T12:13:26.256Z,1.39
2022-09-20T12:14:26.260Z,1.27
2022-09-20T12:15:26.241Z,1.35
2022-09-20T12:16:26.279Z,1.48
2022-09-20T12:17:26.232Z,1.36
2022-09-20T12:18:26.304Z,1.78
2022-09-20T12:19:26.267Z,1.43
2022-09-20T12:20:27.701Z,1.30
2022-09-20T12:21:26.298Z,1.60
2022-09-20T12:22:26.270Z,1.28
2022-09-20T12:23:27.742Z,1.32
2022-09-20T12:24:26.273Z,1.41
2022-09-20T12:25:26.275Z,1.11
2022-09-20T12:26:26.298Z,1.53
2022-09-20T12:27:26.264Z,1.44
2022-09-20T12:28:26.265Z,1.32
2022-09-20T12:29:26.329Z,1.25
2022-09-20T12:30:26.280Z,1.55
2022-09-20T12:31:26.453Z,1.29
2022-09-20T12:32:26.311Z,1.50
2022-09-20T12:33:26.291Z,1.56
2022-09-20T12:34:26.376Z,1.31
2022-09-20T12:35:26.298Z,1.65
2022-09-20T12:36:26.290Z,1.43
2022-09-20T12:37:26.310Z,1.55
2022-09-20T12:38:26.316Z,1.33
2022-09-20T12:39:29.479Z,1.16
2022-09-20T12:40:26.378Z,1.26
2022-09-20T12:41:28.975Z,1.21
2022-09-20T12:42:26.318Z,1.13
2022-09-20T12:43:26.303Z,1.34
2022-09-20T12:44:26.371Z,1.44
2022-09-20T12:45:26.378Z,1.27
2022-09-20T12:46:26.382Z,1.45
2022-09-20T12:47:26.354Z,1.38
2022-09-20T12:48:26.326Z,1.63
2022-09-20T12:49:26.481Z,1.42
2022-09-20T12:50:26.341Z,1.58
2022-09-20T12:51:26.323Z,1.45
2022-09-20T12:52:26.334Z,1.40
2022-09-20T12:53:26.338Z,1.19
2022-09-20T12:54:26.354Z,1.62
2022-09-20T12:55:26.422Z,1.69
2022-09-20T12:56:26.339Z,2.29
2022-09-20T12:57:26.344Z,1.60
2022-09-20T12:58:26.331Z,1.70
2022-09-20T12:59:26.476Z,2.00
2022-09-20T13:00:26.332Z,1.49
2022-09-20T13:01:26.401Z,1.51
2022-09-20T13:02:26.344Z,1.34
2022-09-20T13:03:26.363Z,1.90
2022-09-20T13:04:26.385Z,1.58
2022-09-20T13:05:26.370Z,1.83
2022-09-20T13:06:26.352Z,1.39
2022-09-20T13:07:26.356Z,1.69
2022-09-20T13:08:26.350Z,1.61
2022-09-20T13:09:26.512Z,1.42
2022-09-20T13:10:26.353Z,1.39
2022-09-20T13:11:26.394Z,1.30
2022-09-20T13:12:26.387Z,1.42
2022-09-20T13:13:26.391Z,1.36
2022-09-20T13:14:26.432Z,1.56
2022-09-20T13:15:26.372Z,1.28
2022-09-20T13:16:26.595Z,1.84
2022-09-20T13:17:26.410Z,1.12
2022-09-20T13:18:26.397Z,1.29
2022-09-20T13:19:26.427Z,1.28
2022-09-20T13:20:26.409Z,1.33
2022-09-20T13:21:26.522Z,1.26
2022-09-20T13:22:26.399Z,1.32
2022-09-20T13:23:26.422Z,1.28
2022-09-20T13:24:26.441Z,1.43
2022-09-20T13:25:26.440Z,1.49
2022-09-20T13:26:26.412Z,1.48
2022-09-20T13:27:26.438Z,1.45
2022-09-20T13:28:26.446Z,1.31
2022-09-20T13:29:26.458Z,1.22
2022-09-20T13:30:26.432Z,1.06
2022-09-20T13:31:26.503Z,1.52
2022-09-20T13:32:26.440Z,1.32
2022-09-20T13:33:26.457Z,1.38
2022-09-20T13:34:26.523Z,1.26
2022-09-20T13:35:26.420Z,1.65
2022-09-20T13:36:26.441Z,1.26
2022-09-20T13:37:26.451Z,1.07
2022-09-20T13:38:26.466Z,1.14
2022-09-20T13:39:26.487Z,1.58
2022-09-20T13:40:26.507Z,1.13
2022-09-20T13:41:26.467Z,1.48
2022-09-20T13:42:26.468Z,1.38
2022-09-20T13:43:26.456Z,1.05
2022-09-20T13:45:29.734Z,1.47
2022-09-20T13:49:26.464Z,1.68
2022-09-20T13:51:26.545Z,1.74
2022-09-20T13:52:26.485Z,1.38
2022-09-20T13:53:40.474Z,1.64
2022-09-20T13:54:26.490Z,1.69
2022-09-20T13:55:26.475Z,1.25
2022-09-20T13:56:26.570Z,1.43
2022-09-20T13:57:26.524Z,1.83
2022-09-20T13:58:26.491Z,1.40
2022-09-20T13:59:26.494Z,1.73
2022-09-20T14:01:26.669Z,1.24
2022-09-20T14:03:26.524Z,1.33
2022-09-20T14:04:26.521Z,1.12
2022-09-20T14:05:26.531Z,1.57
2022-09-20T14:06:26.539Z,1.29
2022-09-20T14:07:26.528Z,1.61
2022-09-20T14:08:26.516Z,1.39
2022-09-20T14:09:26.548Z,1.42
2022-09-20T14:10:26.514Z,1.85
2022-09-20T14:11:26.743Z,1.46
2022-09-20T14:12:26.544Z,1.74
2022-09-20T14:13:26.542Z,1.20
2022-09-20T14:14:26.540Z,1.78
2022-09-20T14:15:26.563Z,1.72
2022-09-20T14:17:26.660Z,1.62
2022-09-20T14:18:26.537Z,1.64
2022-09-20T14:19:26.542Z,1.81
2022-09-20T14:20:26.582Z,1.46
2022-09-20T14:21:26.562Z,1.57
2022-09-20T14:22:26.603Z,1.96
2022-09-20T14:24:26.560Z,1.64
2022-09-20T14:26:26.546Z,1.73
2022-09-20T14:27:26.611Z,1.78
2022-09-20T14:28:28.795Z,1.72
2022-09-20T14:29:26.612Z,1.47
2022-09-20T14:30:26.584Z,1.56
2022-09-20T14:31:26.658Z,1.57
2022-09-20T14:32:26.630Z,1.81
2022-09-20T14:33:26.580Z,1.86
2022-09-20T14:34:26.620Z,1.97
2022-09-20T14:36:26.603Z,1.66
2022-09-20T14:37:26.648Z,1.32
2022-09-20T14:39:26.594Z,1.28
2022-09-20T14:40:26.647Z,1.67
2022-09-20T14:41:26.603Z,1.36
2022-09-20T14:42:26.642Z,1.18
2022-09-20T14:43:26.609Z,1.52
2022-09-20T14:44:26.622Z,1.17
2022-09-20T14:45:26.729Z,1.76
2022-09-20T14:47:26.695Z,1.12
2022-09-20T14:49:26.648Z,1.54
2022-09-20T14:50:26.646Z,1.51
2022-09-20T14:51:26.637Z,1.15
2022-09-20T14:52:26.651Z,1.50
2022-09-20T14:53:26.684Z,1.77
2022-09-20T14:54:26.661Z,1.36
2022-09-20T14:55:26.638Z,1.79
2022-09-20T14:56:26.632Z,1.58